createdAt,value
2022-09-30T00:02:38.965Z,1.70
2022-09-30T00:07:33.340Z,1.63
2022-09-30T00:12:27.912Z,1.85
2022-09-30T00:17:22.391Z,2.72
2022-09-30T00:22:16.259Z,1.42
2022-09-30T00:27:10.197Z,1.45
2022-09-30T00:32:03.828Z,1.52
2022-09-30T00:36:57.845Z,2.58
2022-09-30T00:41:57.555Z,1.58
2022-09-30T00:46:59.803Z,1.90
2022-09-30T00:51:56.697Z,3.03
2022-09-30T00:57:09.880Z,3.13
2022-09-30T01:06:57.142Z,1.65
2022-09-30T01:11:49.977Z,1.58
2022-09-30T01:16:43.122Z,3.20
2022-09-30T01:21:47.920Z,3.08
2022-09-30T01:26:55.614Z,1.20
2022-09-30T01:32:18.793Z,2.25
2022-09-30T01:37:41.463Z,1.13
2022-09-30T01:43:01.212Z,2.28
2022-09-30T01:48:33.081Z,2.53
2022-09-30T01:53:42.451Z,1.60
2022-09-30T01:58:54.481Z,1.25
2022-09-30T02:03:56.254Z,1.70
2022-09-30T02:08:58.544Z,1.50
2022-09-30T02:14:08.495Z,1.52
2022-09-30T02:19:39.001Z,1.20
2022-09-30T02:24:37.794Z,2.55
2022-09-30T02:29:37.331Z,2.15
2022-09-30T02:34:34.864Z,2.45
2022-09-30T02:39:53.570Z,1.70
2022-09-30T02:45:27.001Z,2.20
2022-09-30T02:50:31.492Z,2.67
2022-09-30T02:55:36.983Z,1.58
2022-09-30T03:00:31.579Z,1.83
2022-09-30T03:05:25.460Z,1.42
2022-09-30T03:10:19.480Z,2.60
2022-09-30T03:15:33.063Z,2.10
2022-09-30T03:21:16.024Z,4.38
2022-09-30T03:26:18.362Z,1.83
2022-09-30T03:31:34.716Z,1.40
2022-09-30T03:36:50.532Z,2.25
2022-09-30T03:41:54.137Z,3.05
2022-09-30T03:46:58.176Z,2.05
2022-09-30T03:51:58.555Z,1.63
2022-09-30T03:56:52.381Z,1.33
2022-09-30T04:01:46.913Z,1.35
2022-09-30T04:06:40.534Z,2.40
2022-09-30T04:11:35.093Z,1.60
2022-09-30T04:16:51.856Z,0.90
2022-09-30T04:21:47.930Z,1.33
2022-09-30T04:26:41.860Z,0.63
2022-09-30T04:31:36.191Z,1.77
2022-09-30T04:36:30.241Z,1.63
2022-09-30T04:41:24.315Z,1.60
2022-09-30T04:46:19.320Z,1.65
2022-09-30T04:51:33.719Z,1.25
2022-09-30T04:56:27.792Z,1.42
2022-09-30T05:01:22.288Z,1.17
2022-09-30T05:06:16.319Z,4.22
2022-09-30T05:11:11.719Z,1.65
2022-09-30T05:16:05.738Z,1.08
2022-09-30T05:20:59.891Z,2.10
2022-09-30T05:25:54.261Z,1.92
2022-09-30T05:30:48.852Z,1.63
2022-09-30T05:35:44.379Z,1.10
2022-09-30T05:40:41.439Z,1.88
2022-09-30T05:45:34.770Z,1.27
2022-09-30T05:50:29.561Z,4.85
2022-09-30T05:55:24.825Z,4.25
2022-09-30T06:00:19.570Z,3.60
2022-09-30T06:05:14.276Z,4.47
2022-09-30T06:10:12.903Z,8.57
2022-09-30T06:15:08.421Z,5.40
2022-09-30T06:20:06.044Z,1.90
2022-09-30T06:37:53.990Z,4.78
2022-09-30T06:42:48.948Z,17.80
2022-09-30T06:47:54.465Z,9.60
2022-09-30T06:52:50.582Z,15.45
2022-09-30T06:57:44.505Z,7.25
2022-09-30T07:02:39.351Z,7.40
2022-09-30T07:07:35.515Z,3.90
2022-09-30T07:12:29.429Z,8.55
2022-09-30T07:17:25.077Z,5.80
2022-09-30T07:22:34.999Z,4.88
2022-09-30T07:27:31.537Z,8.00
2022-09-30T07:32:29.073Z,6.22
2022-09-30T07:37:22.725Z,5.90
2022-09-30T07:42:22.512Z,5.80
2022-09-30T07:47:17.366Z,6.43
2022-09-30T07:52:13.352Z,5.95
2022-09-30T07:57:10.728Z,7.95
2022-09-30T08:02:05.065Z,5.38
2022-09-30T08:07:01.685Z,4.45
2022-09-30T08:11:55.668Z,8.00
2022-09-30T08:16:49.434Z,4.10
2022-09-30T08:21:42.101Z,3.40
2022-09-30T08:31:29.017Z,23.30
2022-09-30T08:36:25.719Z,50.22
2022-09-30T08:41:39.850Z,69.43
2022-09-30T08:46:57.514Z,51.08
2022-09-30T08:51:53.279Z,45.38
2022-09-30T08:56:48.277Z,32.47
2022-09-30T09:01:44.486Z,33.78
2022-09-30T09:07:06.093Z,28.35
2022-09-30T09:12:31.831Z,31.63
2022-09-30T09:17:38.343Z,26.50
2022-09-30T09:22:32.554Z,24.63
2022-09-30T09:28:14.681Z,17.88
2022-09-30T09:33:23.377Z,18.92
2022-09-30T09:38:26.291Z,18.90
2022-09-30T09:43:34.069Z,14.38
2022-09-30T09:48:27.402Z,13.80
2022-09-30T09:53:34.269Z,15.20
2022-09-30T09:58:29.400Z,14.93
2022-09-30T10:03:25.785Z,15.88
2022-09-30T10:08:21.720Z,13.23
2022-09-30T10:13:44.352Z,15.25
2022-09-30T10:18:38.778Z,13.85
2022-09-30T10:23:36.597Z,15.25
2022-09-30T10:28:34.498Z,14.68
2022-09-30T10:33:49.171Z,12.02
2022-09-30T10:39:05.953Z,13.70
2022-09-30T10:44:03.099Z,15.18
2022-09-30T10:48:57.697Z,13.55
2022-09-30T10:53:52.059Z,12.00
2022-09-30T10:58:52.721Z,11.00
2022-09-30T11:04:04.311Z,10.48
2022-09-30T11:09:22.536Z,10.80
2022-09-30T11:14:18.295Z,13.43
2022-09-30T11:19:25.012Z,12.68
2022-09-30T11:24:53.940Z,11.25
2022-09-30T11:30:11.992Z,13.32
2022-09-30T11:35:35.513Z,14.00
2022-09-30T11:40:50.038Z,12.77
2022-09-30T11:45:54.576Z,14.00
2022-09-30T11:51:36.917Z,10.65
2022-09-30T11:56:33.421Z,13.40
2022-09-30T12:01:34.652Z,11.43
2022-09-30T12:06:35.161Z,11.88
2022-09-30T12:12:10.239Z,9.48
2022-09-30T12:17:11.319Z,10.07
2022-09-30T12:22:32.148Z,11.38
2022-09-30T12:27:48.688Z,9.98
2022-09-30T12:33:03.313Z,10.95
2022-09-30T12:37:59.592Z,8.25
2022-09-30T12:43:13.904Z,8.00
2022-09-30T12:48:17.391Z,8.40
2022-09-30T12:53:39.892Z,12.70
2022-09-30T12:58:46.031Z,10.07
2022-09-30T13:04:18.309Z,7.60
2022-09-30T13:09:17.378Z,6.57
2022-09-30T13:14:15.695Z,9.30
2022-09-30T13:19:22.061Z,8.45
2022-09-30T13:24:18.133Z,8.98
2022-09-30T13:29:22.840Z,9.25
2022-09-30T13:34:23.942Z,7.10
2022-09-30T13:39:22.390Z,9.65
2022-09-30T13:44:24.954Z,10.93
2022-09-30T13:54:49.047Z,9.20
2022-09-30T14:00:06.025Z,6.45
2022-09-30T14:05:38.122Z,6.85
2022-09-30T14:10:57.397Z,7.55
2022-09-30T14:15:57.665Z,6.47
2022-09-30T14:21:16.596Z,6.05
2022-09-30T14:26:39.727Z,8.68
2022-09-30T14:31:52.128Z,7.22
2022-09-30T14:36:46.838Z,6.53
2022-09-30T14:41:42.103Z,6.90
2022-09-30T14:46:39.576Z,4.80
2022-09-30T14:51:44.292Z,5.22
2022-09-30T14:56:39.869Z,5.10
2022-09-30T15:01:36.756Z,4.68
2022-09-30T15:06:33.068Z,4.82
2022-09-30T15:11:27.924Z,5.78
2022-09-30T15:16:31.030Z,4.43
2022-09-30T15:21:25.888Z,3.97
2022-09-30T15:26:20.526Z,3.90
2022-09-30T15:31:27.380Z,4.65
2022-09-30T15:36:29.097Z,5.07
2022-09-30T15:41:23.192Z,6.33
2022-09-30T15:46:32.772Z,4.50
2022-09-30T15:51:31.002Z,3.33
2022-09-30T15:56:35.965Z,3.92
2022-09-30T16:01:49.211Z,4.53
2022-09-30T16:11:42.386Z,3.55
2022-09-30T16:16:38.215Z,4.95
2022-09-30T16:21:46.228Z,3.72
2022-09-30T16:26:46.189Z,6.25
2022-09-30T16:31:40.422Z,4.13
2022-09-30T16:36:34.478Z,3.20
2022-09-30T16:41:29.702Z,3.22
2022-09-30T16:46:24.549Z,3.50
2022-09-30T16:51:17.765Z,3.38
2022-09-30T16:56:19.798Z,4.18
2022-09-30T17:01:21.274Z,2.27
2022-09-30T17:06:16.436Z,4.05
2022-09-30T17:11:11.789Z,4.00
2022-09-30T17:16:06.141Z,4.65
2022-09-30T17:21:02.072Z,3.20
2022-09-30T17:25:55.249Z,3.20
2022-09-30T17:30:50.230Z,2.10
2022-09-30T17:35:43.881Z,2.42
2022-09-30T17:40:55.988Z,2.00
2022-09-30T17:45:51.506Z,3.95
2022-09-30T17:50:47.116Z,2.72
2022-09-30T17:55:40.854Z,3.28
2022-09-30T18:00:34.490Z,3.85
2022-09-30T18:05:29.012Z,2.67
2022-09-30T18:10:23.480Z,2.72
2022-09-30T18:15:17.684Z,2.03
2022-09-30T18:20:11.925Z,3.25
2022-09-30T18:25:22.324Z,3.30
2022-09-30T18:30:16.344Z,2.45
2022-09-30T18:35:12.931Z,2.50
2022-09-30T18:40:09.720Z,3.70
2022-09-30T18:45:04.081Z,2.35
2022-09-30T18:49:58.194Z,2.25
2022-09-30T18:54:52.855Z,4.07
2022-09-30T18:59:47.688Z,4.07
2022-09-30T19:04:41.703Z,26.02
2022-09-30T19:09:35.764Z,47.97
2022-09-30T19:14:31.389Z,43.08
2022-09-30T19:19:25.076Z,40.22
2022-09-30T19:24:19.813Z,31.25
2022-09-30T19:29:15.625Z,36.70
2022-09-30T19:34:18.335Z,28.45
2022-09-30T19:39:13.748Z,31.02
2022-09-30T19:44:07.845Z,27.95
2022-09-30T19:49:01.022Z,26.27
2022-09-30T19:54:06.670Z,26.42
2022-09-30T19:59:01.319Z,22.35
2022-09-30T20:03:58.112Z,24.23
2022-09-30T20:08:53.785Z,22.67
2022-09-30T20:17:03.537Z,20.40
2022-09-30T20:21:57.495Z,21.95
2022-09-30T20:26:51.575Z,18.95
2022-09-30T20:31:46.141Z,18.42
2022-09-30T20:36:41.049Z,19.15
2022-09-30T20:41:37.629Z,17.85
2022-09-30T20:46:34.356Z,21.90
2022-09-30T20:51:28.501Z,22.42
2022-09-30T20:56:23.735Z,20.27
2022-09-30T21:01:19.776Z,18.95
2022-09-30T21:06:13.593Z,18.35
2022-09-30T21:11:08.473Z,17.77
2022-09-30T21:16:04.750Z,17.35
2022-09-30T21:21:06.643Z,18.65
2022-09-30T21:26:32.536Z,16.23
2022-09-30T21:31:27.037Z,17.10
2022-09-30T21:36:23.004Z,16.48
2022-09-30T21:41:17.004Z,14.77
2022-09-30T21:46:11.608Z,17.48
2022-09-30T21:51:06.764Z,16.70
2022-09-30T21:56:02.360Z,15.38
2022-09-30T22:00:58.102Z,13.98
2022-09-30T22:05:55.669Z,15.38
2022-09-30T22:10:53.867Z,13.63
2022-09-30T22:15:48.455Z,13.57
2022-09-30T22:20:43.014Z,13.77
2022-09-30T22:25:36.819Z,14.68
2022-09-30T22:30:31.252Z,11.95
2022-09-30T22:35:45.272Z,13.85
2022-09-30T22:40:38.831Z,12.98
2022-09-30T22:45:32.848Z,15.38
2022-09-30T22:50:29.465Z,11.98
2022-09-30T22:55:23.677Z,12.18
2022-09-30T23:00:18.335Z,12.20
2022-09-30T23:05:12.283Z,11.25
2022-09-30T23:10:10.039Z,12.68
2022-09-30T23:15:03.715Z,11.52
2022-09-30T23:19:57.294Z,11.85
2022-09-30T23:24:51.678Z,12.90
2022-09-30T23:29:45.591Z,13.43
2022-09-30T23:34:39.803Z,10.68
2022-09-30T23:39:34.196Z,10.75
2022-09-30T23:44:29.051Z,11.98
2022-09-30T23:49:23.281Z,10.52
2022-09-30T23:54:17.588Z,11.65
2022-09-30T23:59:13.757Z,12.98
